sensor_id;sensor_type;location;lat;lon;timestamp;pressure;altitude;pressure_sealevel;temperature;humidity
57248;BME280;55809;46.618;10.764;2023-02-12T00:00:30;94427.66;;;0.74;61.65
57248;BME280;55809;46.618;10.764;2023-02-12T00:03:06;94426.47;;;0.80;60.96
57248;BME280;55809;46.618;10.764;2023-02-12T00:05:41;94429.59;;;0.82;60.67
57248;BME280;55809;46.618;10.764;2023-02-12T00:08:22;94419.50;;;0.70;62.10
57248;BME280;55809;46.618;10.764;2023-02-12T00:11:12;94432.81;;;0.70;61.92
57248;BME280;55809;46.618;10.764;2023-02-12T00:14:00;94433.63;;;0.57;62.65
57248;BME280;55809;46.618;10.764;2023-02-12T00:16:35;94435.28;;;0.53;62.36
57248;BME280;55809;46.618;10.764;2023-02-12T00:19:05;94431.75;;;0.57;61.69
57248;BME280;55809;46.618;10.764;2023-02-12T00:21:33;94433.31;;;0.58;62.62
57248;BME280;55809;46.618;10.764;2023-02-12T00:24:11;94433.63;;;0.57;61.83
57248;BME280;55809;46.618;10.764;2023-02-12T00:26:42;94441.78;;;0.60;61.72
57248;BME280;55809;46.618;10.764;2023-02-12T00:29:22;94439.69;;;0.71;61.11
57248;BME280;55809;46.618;10.764;2023-02-12T00:31:54;94443.63;;;0.74;61.45
57248;BME280;55809;46.618;10.764;2023-02-12T00:34:38;94441.84;;;0.69;61.96
57248;BME280;55809;46.618;10.764;2023-02-12T00:37:08;94407.38;;;0.41;61.89
57248;BME280;55809;46.618;10.764;2023-02-12T00:39:49;94447.16;;;0.69;63.17
57248;BME280;55809;46.618;10.764;2023-02-12T00:42:22;94436.84;;;0.67;63.72
57248;BME280;55809;46.618;10.764;2023-02-12T00:44:55;94445.38;;;0.78;63.35
57248;BME280;55809;46.618;10.764;2023-02-12T00:47:32;94433.66;;;0.79;63.20
57248;BME280;55809;46.618;10.764;2023-02-12T00:50:07;94434.13;;;0.81;62.80
57248;BME280;55809;46.618;10.764;2023-02-12T00:52:49;94438.56;;;0.86;63.71
57248;BME280;55809;46.618;10.764;2023-02-12T00:55:31;94429.16;;;1.02;63.33
57248;BME280;55809;46.618;10.764;2023-02-12T00:58:13;94417.72;;;1.02;62.53
57248;BME280;55809;46.618;10.764;2023-02-12T01:00:44;94427.72;;;1.19;62.59
57248;BME280;55809;46.618;10.764;2023-02-12T01:03:23;94404.63;;;1.05;62.90
57248;BME280;55809;46.618;10.764;2023-02-12T01:06:17;94436.06;;;1.26;62.16
57248;BME280;55809;46.618;10.764;2023-02-12T01:09:01;94434.19;;;1.26;62.31
57248;BME280;55809;46.618;10.764;2023-02-12T01:11:40;94437.31;;;1.28;61.88
57248;BME280;55809;46.618;10.764;2023-02-12T01:14:12;94438.31;;;1.32;61.99
57248;BME280;55809;46.618;10.764;2023-02-12T01:16:57;94434.44;;;1.38;63.01
57248;BME280;55809;46.618;10.764;2023-02-12T01:19:36;94438.41;;;1.50;61.88
57248;BME280;55809;46.618;10.764;2023-02-12T01:22:12;94434.66;;;1.51;62.32
57248;BME280;55809;46.618;10.764;2023-02-12T01:24:53;94447.00;;;1.47;62.52
57248;BME280;55809;46.618;10.764;2023-02-12T01:27:22;94442.59;;;1.42;62.19
57248;BME280;55809;46.618;10.764;2023-02-12T01:29:51;94447.97;;;1.51;62.11
57248;BME280;55809;46.618;10.764;2023-02-12T01:32:19;94415.56;;;1.26;61.76
57248;BME280;55809;46.618;10.764;2023-02-12T01:35:02;94429.13;;;1.38;62.37
57248;BME280;55809;46.618;10.764;2023-02-12T01:37:33;94428.19;;;1.43;62.19
57248;BME280;55809;46.618;10.764;2023-02-12T01:40:11;94427.09;;;1.44;61.76
57248;BME280;55809;46.618;10.764;2023-02-12T01:42:45;94427.88;;;1.45;61.43
57248;BME280;55809;46.618;10.764;2023-02-12T01:45:46;94425.53;;;1.43;62.33
57248;BME280;55809;46.618;10.764;2023-02-12T01:48:32;94423.66;;;1.21;62.27
57248;BME280;55809;46.618;10.764;2023-02-12T01:51:25;94417.38;;;1.17;61.83
57248;BME280;55809;46.618;10.764;2023-02-12T01:54:07;94423.22;;;1.05;62.65
57248;BME280;55809;46.618;10.764;2023-02-12T01:56:45;94430.19;;;0.92;63.13
57248;BME280;55809;46.618;10.764;2023-02-12T01:59:29;94431.97;;;0.83;62.93
57248;BME280;55809;46.618;10.764;2023-02-12T02:02:02;94422.22;;;0.79;62.83
57248;BME280;55809;46.618;10.764;2023-02-12T02:04:48;94424.41;;;0.77;63.39
57248;BME280;55809;46.618;10.764;2023-02-12T02:07:35;94425.47;;;0.76;62.71
57248;BME280;55809;46.618;10.764;2023-02-12T02:10:24;94411.59;;;0.79;62.08
57248;BME280;55809;46.618;10.764;2023-02-12T02:12:54;94416.13;;;0.78;62.54
57248;BME280;55809;46.618;10.764;2023-02-12T02:15:42;94420.97;;;0.76;62.92
57248;BME280;55809;46.618;10.764;2023-02-12T02:18:34;94417.22;;;0.77;62.96
57248;BME280;55809;46.618;10.764;2023-02-12T02:21:56;94392.81;;;0.75;62.92
57248;BME280;55809;46.618;10.764;2023-02-12T02:25:05;94402.56;;;0.80;63.19
57248;BME280;55809;46.618;10.764;2023-02-12T02:28:06;94408.91;;;0.92;63.42
57248;BME280;55809;46.618;10.764;2023-02-12T02:31:03;94405.78;;;1.13;63.37
57248;BME280;55809;46.618;10.764;2023-02-12T02:33:45;94407.69;;;1.21;62.93
57248;BME280;55809;46.618;10.764;2023-02-12T02:36:35;94400.66;;;1.16;63.09
57248;BME280;55809;46.618;10.764;2023-02-12T02:39:24;94407.09;;;1.24;62.85
57248;BME280;55809;46.618;10.764;2023-02-12T02:42:03;94415.00;;;1.38;62.64
57248;BME280;55809;46.618;10.764;2023-02-12T02:44:43;94407.84;;;1.38;62.69
57248;BME280;55809;46.618;10.764;2023-02-12T02:47:27;94410.13;;;1.31;62.78
57248;BME280;55809;46.618;10.764;2023-02-12T02:50:03;94406.22;;;1.29;62.95
57248;BME280;55809;46.618;10.764;2023-02-12T02:52:49;94395.06;;;1.27;62.79
57248;BME280;55809;46.618;10.764;2023-02-12T02:56:05;94397.63;;;1.32;62.61
57248;BME280;55809;46.618;10.764;2023-02-12T02:58:38;94379.88;;;1.19;62.57
57248;BME280;55809;46.618;10.764;2023-02-12T03:01:12;94396.81;;;1.31;62.44
57248;BME280;55809;46.618;10.764;2023-02-12T03:04:06;94399.00;;;1.29;62.35
57248;BME280;55809;46.618;10.764;2023-02-12T03:06:40;94402.94;;;1.32;61.79
57248;BME280;55809;46.618;10.764;2023-02-12T03:09:24;94400.72;;;1.25;62.12
57248;BME280;55809;46.618;10.764;2023-02-12T03:12:10;94390.53;;;1.27;62.39
57248;BME280;55809;46.618;10.764;2023-02-12T03:15:05;94394.81;;;1.37;61.91
57248;BME280;55809;46.618;10.764;2023-02-12T03:17:41;94389.84;;;1.44;61.81
57248;BME280;55809;46.618;10.764;2023-02-12T03:20:46;94394.28;;;1.49;61.49
57248;BME280;55809;46.618;10.764;2023-02-12T03:23:41;94291.72;;;0.80;62.00
57248;BME280;55809;46.618;10.764;2023-02-12T03:26:28;94395.47;;;1.65;60.97
57248;BME280;55809;46.618;10.764;2023-02-12T03:29:12;94386.03;;;1.59;61.54
57248;BME280;55809;46.618;10.764;2023-02-12T03:32:07;94381.16;;;1.52;61.17
57248;BME280;55809;46.618;10.764;2023-02-12T03:34:48;94393.06;;;1.55;61.36
57248;BME280;55809;46.618;10.764;2023-02-12T03:37:32;94395.53;;;1.51;61.60
57248;BME280;55809;46.618;10.764;2023-02-12T03:40:09;94393.00;;;1.46;61.77
57248;BME280;55809;46.618;10.764;2023-02-12T03:42:50;94396.00;;;1.22;62.30
57248;BME280;55809;46.618;10.764;2023-02-12T03:45:30;94382.19;;;0.98;62.60
57248;BME280;55809;46.618;10.764;2023-02-12T03:48:07;94399.28;;;1.05;62.54
57248;BME280;55809;46.618;10.764;2023-02-12T03:50:54;94390.00;;;0.94;62.22
57248;BME280;55809;46.618;10.764;2023-02-12T03:53:29;94393.16;;;0.96;62.92
57248;BME280;55809;46.618;10.764;2023-02-12T03:56:02;94401.84;;;0.88;63.25
57248;BME280;55809;46.618;10.764;2023-02-12T03:58:45;94394.94;;;0.87;62.83
57248;BME280;55809;46.618;10.764;2023-02-12T04:01:23;94386.66;;;0.88;63.02
57248;BME280;55809;46.618;10.764;2023-02-12T04:03:52;94372.13;;;0.86;62.78
57248;BME280;55809;46.618;10.764;2023-02-12T04:06:25;94368.44;;;0.96;62.68
57248;BME280;55809;46.618;10.764;2023-02-12T04:09:26;94367.22;;;1.02;62.23
57248;BME280;55809;46.618;10.764;2023-02-12T04:12:14;94377.25;;;1.27;61.84
57248;BME280;55809;46.618;10.764;2023-02-12T04:15:27;94372.16;;;1.39;62.92
57248;BME280;55809;46.618;10.764;2023-02-12T04:18:03;94368.47;;;1.58;61.56
57248;BME280;55809;46.618;10.764;2023-02-12T04:20:51;94371.84;;;1.72;60.88
57248;BME280;55809;46.618;10.764;2023-02-12T04:23:47;94371.69;;;1.77;61.14
57248;BME280;55809;46.618;10.764;2023-02-12T04:26:23;94359.66;;;1.71;60.85
57248;BME280;55809;46.618;10.764;2023-02-12T04:29:02;94350.56;;;1.72;60.54
57248;BME280;55809;46.618;10.764;2023-02-12T04:31:37;94364.25;;;1.88;60.17
57248;BME280;55809;46.618;10.764;2023-02-12T04:34:09;94347.25;;;1.67;60.52
57248;BME280;55809;46.618;10.764;2023-02-12T04:36:44;94357.00;;;1.80;60.49
57248;BME280;55809;46.618;10.764;2023-02-12T04:39:15;94342.09;;;1.70;60.47
57248;BME280;55809;46.618;10.764;2023-02-12T04:41:46;94313.53;;;1.53;60.36
57248;BME280;55809;46.618;10.764;2023-02-12T04:44:15;94310.31;;;1.65;59.78
57248;BME280;55809;46.618;10.764;2023-02-12T04:46:42;94355.94;;;1.90;59.57
57248;BME280;55809;46.618;10.764;2023-02-12T04:49:13;94359.22;;;1.86;59.81
57248;BME280;55809;46.618;10.764;2023-02-12T04:51:41;94372.19;;;1.79;60.08
57248;BME280;55809;46.618;10.764;2023-02-12T04:54:09;94319.63;;;1.54;60.35
57248;BME280;55809;46.618;10.764;2023-02-12T04:56:38;94367.69;;;1.88;59.96
57248;BME280;55809;46.618;10.764;2023-02-12T04:59:07;94383.63;;;1.80;60.07
57248;BME280;55809;46.618;10.764;2023-02-12T05:01:35;94373.75;;;1.80;60.42
57248;BME280;55809;46.618;10.764;2023-02-12T05:04:04;94377.28;;;1.67;60.22
57248;BME280;55809;46.618;10.764;2023-02-12T05:06:33;94392.13;;;1.59;60.68
57248;BME280;55809;46.618;10.764;2023-02-12T05:09:01;94352.25;;;1.37;60.53
57248;BME280;55809;46.618;10.764;2023-02-12T05:11:28;94404.50;;;1.55;60.77
57248;BME280;55809;46.618;10.764;2023-02-12T05:13:55;94411.81;;;1.50;60.63
57248;BME280;55809;46.618;10.764;2023-02-12T05:16:24;94409.91;;;1.42;60.75
57248;BME280;55809;46.618;10.764;2023-02-12T05:18:51;94394.47;;;1.30;60.68
57248;BME280;55809;46.618;10.764;2023-02-12T05:21:18;94424.16;;;1.46;61.17
57248;BME280;55809;46.618;10.764;2023-02-12T05:23:45;94421.25;;;1.33;61.20
57248;BME280;55809;46.618;10.764;2023-02-12T05:26:14;94421.75;;;1.35;60.88
57248;BME280;55809;46.618;10.764;2023-02-12T05:28:41;94423.91;;;1.33;60.78
57248;BME280;55809;46.618;10.764;2023-02-12T05:31:09;94425.47;;;1.34;62.01
57248;BME280;55809;46.618;10.764;2023-02-12T05:33:40;94413.28;;;1.11;62.46
57248;BME280;55809;46.618;10.764;2023-02-12T05:36:09;94435.31;;;1.11;62.54
57248;BME280;55809;46.618;10.764;2023-02-12T05:38:37;94382.63;;;0.91;62.13
57248;BME280;55809;46.618;10.764;2023-02-12T05:41:05;94426.22;;;1.26;62.11
57248;BME280;55809;46.618;10.764;2023-02-12T05:43:33;94408.31;;;1.18;62.25
57248;BME280;55809;46.618;10.764;2023-02-12T05:46:01;94396.63;;;1.05;62.07
57248;BME280;55809;46.618;10.764;2023-02-12T05:48:29;94404.41;;;1.15;61.88
57248;BME280;55809;46.618;10.764;2023-02-12T05:51:02;94307.28;;;0.51;61.31
57248;BME280;55809;46.618;10.764;2023-02-12T05:53:30;94361.28;;;0.82;61.57
57248;BME280;55809;46.618;10.764;2023-02-12T05:56:06;94385.53;;;1.03;61.35
57248;BME280;55809;46.618;10.764;2023-02-12T05:58:34;94422.59;;;1.22;61.30
57248;BME280;55809;46.618;10.764;2023-02-12T06:01:01;94430.59;;;1.08;62.15
57248;BME280;55809;46.618;10.764;2023-02-12T06:03:28;94427.41;;;0.98;62.25
57248;BME280;55809;46.618;10.764;2023-02-12T06:05:55;94377.03;;;0.56;62.34
57248;BME280;55809;46.618;10.764;2023-02-12T06:08:25;94431.25;;;0.91;62.43
57248;BME280;55809;46.618;10.764;2023-02-12T06:10:52;94432.03;;;0.92;62.25
57248;BME280;55809;46.618;10.764;2023-02-12T06:13:19;94384.69;;;0.58;62.08
57248;BME280;55809;46.618;10.764;2023-02-12T06:15:46;94380.94;;;0.59;61.96
57248;BME280;55809;46.618;10.764;2023-02-12T06:18:13;94383.13;;;0.57;62.45
57248;BME280;55809;46.618;10.764;2023-02-12T06:20:40;94426.25;;;0.90;62.28
57248;BME280;55809;46.618;10.764;2023-02-12T06:23:07;94449.06;;;0.91;62.50
57248;BME280;55809;46.618;10.764;2023-02-12T06:25:36;94435.50;;;0.92;62.38
57248;BME280;55809;46.618;10.764;2023-02-12T06:28:03;94449.81;;;1.05;61.93
57248;BME280;55809;46.618;10.764;2023-02-12T06:30:32;94420.44;;;0.88;62.26
57248;BME280;55809;46.618;10.764;2023-02-12T06:32:59;94428.38;;;1.02;61.96
57248;BME280;55809;46.618;10.764;2023-02-12T06:35:27;94441.63;;;1.15;61.58
57248;BME280;55809;46.618;10.764;2023-02-12T06:37:54;94418.94;;;1.18;61.48
57248;BME280;55809;46.618;10.764;2023-02-12T06:40:21;94441.19;;;1.45;61.21
57248;BME280;55809;46.618;10.764;2023-02-12T06:42:50;94433.19;;;1.45;61.04
57248;BME280;55809;46.618;10.764;2023-02-12T06:45:17;94448.03;;;1.59;61.20
57248;BME280;55809;46.618;10.764;2023-02-12T06:47:44;94416.28;;;1.40;60.88
57248;BME280;55809;46.618;10.764;2023-02-12T06:50:11;94441.78;;;1.64;61.05
57248;BME280;55809;46.618;10.764;2023-02-12T06:52:38;94445.09;;;1.70;61.09
57248;BME280;55809;46.618;10.764;2023-02-12T06:55:06;94448.28;;;1.80;60.79
57248;BME280;55809;46.618;10.764;2023-02-12T06:57:33;94446.59;;;1.84;60.22
57248;BME280;55809;46.618;10.764;2023-02-12T07:00:02;94447.56;;;1.88;60.19
57248;BME280;55809;46.618;10.764;2023-02-12T07:02:31;94446.94;;;1.92;60.02
57248;BME280;55809;46.618;10.764;2023-02-12T07:05:11;94447.59;;;1.97;59.73
57248;BME280;55809;46.618;10.764;2023-02-12T07:07:45;94452.63;;;1.99;59.54
57248;BME280;55809;46.618;10.764;2023-02-12T07:10:23;94457.00;;;2.03;59.87
57248;BME280;55809;46.618;10.764;2023-02-12T07:12:56;94345.38;;;1.36;60.39
57248;BME280;55809;46.618;10.764;2023-02-12T07:15:52;94437.91;;;2.01;59.43
57248;BME280;55809;46.618;10.764;2023-02-12T07:18:20;94458.78;;;2.17;59.53
57248;BME280;55809;46.618;10.764;2023-02-12T07:20:56;94464.91;;;2.17;59.92
57248;BME280;55809;46.618;10.764;2023-02-12T07:23:29;94461.00;;;2.15;59.75
57248;BME280;55809;46.618;10.764;2023-02-12T07:26:09;94460.22;;;2.14;60.02
57248;BME280;55809;46.618;10.764;2023-02-12T07:28:38;94460.50;;;2.13;59.92
57248;BME280;55809;46.618;10.764;2023-02-12T07:31:10;94467.56;;;2.17;59.82
57248;BME280;55809;46.618;10.764;2023-02-12T07:33:44;94470.94;;;2.40;59.58
57248;BME280;55809;46.618;10.764;2023-02-12T07:36:29;94474.97;;;2.86;58.43
57248;BME280;55809;46.618;10.764;2023-02-12T07:39:03;94465.94;;;3.39;57.36
57248;BME280;55809;46.618;10.764;2023-02-12T07:41:31;94407.00;;;3.62;55.55
57248;BME280;55809;46.618;10.764;2023-02-12T07:43:59;94453.56;;;4.46;54.39
57248;BME280;55809;46.618;10.764;2023-02-12T07:46:31;94463.72;;;4.91;52.71
57248;BME280;55809;46.618;10.764;2023-02-12T07:48:58;94456.44;;;5.21;51.54
57248;BME280;55809;46.618;10.764;2023-02-12T07:51:27;94448.06;;;5.44;50.74
57248;BME280;55809;46.618;10.764;2023-02-12T07:54:24;94447.97;;;5.85;50.86
57248;BME280;55809;46.618;10.764;2023-02-12T07:56:56;94452.56;;;6.18;50.48
57248;BME280;55809;46.618;10.764;2023-02-12T07:59:28;94449.47;;;6.41;49.21
57248;BME280;55809;46.618;10.764;2023-02-12T08:02:08;94450.72;;;6.55;47.96
57248;BME280;55809;46.618;10.764;2023-02-12T08:04:35;94457.41;;;6.86;47.91
57248;BME280;55809;46.618;10.764;2023-02-12T08:07:02;94450.00;;;7.08;48.42
57248;BME280;55809;46.618;10.764;2023-02-12T08:09:29;94379.22;;;6.88;47.80
57248;BME280;55809;46.618;10.764;2023-02-12T08:12:06;94324.25;;;6.81;47.35
57248;BME280;55809;46.618;10.764;2023-02-12T08:14:50;94308.03;;;7.06;45.97
57248;BME280;55809;46.618;10.764;2023-02-12T08:17:41;94312.66;;;7.49;44.93
57248;BME280;55809;46.618;10.764;2023-02-12T08:20:49;94362.66;;;8.14;44.19
57248;BME280;55809;46.618;10.764;2023-02-12T08:23:21;94353.66;;;8.06;44.24
57248;BME280;55809;46.618;10.764;2023-02-12T08:26:08;94329.34;;;8.03;44.15
57248;BME280;55809;46.618;10.764;2023-02-12T08:28:58;94313.56;;;8.17;43.64
57248;BME280;55809;46.618;10.764;2023-02-12T08:31:29;94382.03;;;8.86;43.36
57248;BME280;55809;46.618;10.764;2023-02-12T08:34:24;94325.47;;;8.67;43.86
57248;BME280;55809;46.618;10.764;2023-02-12T08:37:02;94358.94;;;9.05;41.90
57248;BME280;55809;46.618;10.764;2023-02-12T08:39:50;94370.97;;;9.27;41.96
57248;BME280;55809;46.618;10.764;2023-02-12T08:42:39;94427.34;;;9.94;41.51
57248;BME280;55809;46.618;10.764;2023-02-12T08:45:18;94333.78;;;9.55;39.48
57248;BME280;55809;46.618;10.764;2023-02-12T08:48:17;94401.19;;;10.40;40.15
57248;BME280;55809;46.618;10.764;2023-02-12T08:50:46;94407.03;;;10.46;38.58
57248;BME280;55809;46.618;10.764;2023-02-12T08:53:13;94388.63;;;10.51;38.83
57248;BME280;55809;46.618;10.764;2023-02-12T08:55:47;94412.19;;;10.77;38.40
57248;BME280;55809;46.618;10.764;2023-02-12T08:58:14;94353.75;;;10.66;38.88
57248;BME280;55809;46.618;10.764;2023-02-12T09:00:41;94407.00;;;11.22;38.75
57248;BME280;55809;46.618;10.764;2023-02-12T09:03:08;94360.44;;;11.02;37.89
57248;BME280;55809;46.618;10.764;2023-02-12T09:05:37;94405.06;;;11.49;37.74
57248;BME280;55809;46.618;10.764;2023-02-12T09:08:06;94353.97;;;11.40;36.86
57248;BME280;55809;46.618;10.764;2023-02-12T09:10:33;94403.13;;;11.83;100.00
57248;BME280;55809;46.618;10.764;2023-02-12T09:13:00;64767.38;;;-145.41;100.00
57248;BME280;55809;46.618;10.764;2023-02-12T09:15:27;64767.38;;;-145.41;100.00
57248;BME280;55809;46.618;10.764;2023-02-12T09:17:54;64767.38;;;-145.41;100.00
57248;BME280;55809;46.618;10.764;2023-02-12T09:20:22;64767.38;;;-145.41;100.00
57248;BME280;55809;46.618;10.764;2023-02-12T09:22:49;64767.38;;;-145.41;100.00
57248;BME280;55809;46.618;10.764;2023-02-12T09:25:19;64767.38;;;-145.41;100.00
57248;BME280;55809;46.618;10.764;2023-02-12T09:27:47;64767.38;;;-145.41;100.00
57248;BME280;55809;46.618;10.764;2023-02-12T09:30:15;64767.38;;;-145.41;100.00
57248;BME280;55809;46.618;10.764;2023-02-12T09:32:42;64767.38;;;-145.41;100.00
57248;BME280;55809;46.618;10.764;2023-02-12T09:35:09;64767.38;;;-145.41;100.00
57248;BME280;55809;46.618;10.764;2023-02-12T09:37:37;64767.38;;;-145.41;100.00
57248;BME280;55809;46.618;10.764;2023-02-12T09:40:06;64767.38;;;-145.41;100.00
57248;BME280;55809;46.618;10.764;2023-02-12T09:45:37;64767.38;;;-145.41;100.00
57248;BME280;55809;46.618;10.764;2023-02-12T09:48:22;64767.38;;;-145.41;100.00
57248;BME280;55809;46.618;10.764;2023-02-12T09:50:56;64767.38;;;-145.41;100.00
57248;BME280;55809;46.618;10.764;2023-02-12T09:53:27;64767.38;;;-145.41;100.00
57248;BME280;55809;46.618;10.764;2023-02-12T09:59:29;64767.38;;;-145.41;100.00
57248;BME280;55809;46.618;10.764;2023-02-12T10:02:46;64767.38;;;-145.41;100.00
57248;BME280;55809;46.618;10.764;2023-02-12T10:09:18;64767.38;;;-145.41;100.00
57248;BME280;55809;46.618;10.764;2023-02-12T10:12:21;64767.38;;;-145.41;100.00
57248;BME280;55809;46.618;10.764;2023-02-12T10:15:46;64767.38;;;-145.41;100.00
57248;BME280;55809;46.618;10.764;2023-02-12T10:19:03;64767.38;;;-145.41;100.00
57248;BME280;55809;46.618;10.764;2023-02-12T10:21:56;64767.38;;;-145.41;100.00
57248;BME280;55809;46.618;10.764;2023-02-12T10:27:47;64767.38;;;-145.41;100.00
57248;BME280;55809;46.618;10.764;2023-02-12T10:30:42;64767.38;;;-145.41;100.00
57248;BME280;55809;46.618;10.764;2023-02-12T10:33:27;64767.38;;;-145.41;100.00
57248;BME280;55809;46.618;10.764;2023-02-12T10:36:01;64767.38;;;-145.41;100.00
57248;BME280;55809;46.618;10.764;2023-02-12T10:38:34;64767.38;;;-145.41;100.00
57248;BME280;55809;46.618;10.764;2023-02-12T10:41:02;64767.38;;;-145.41;100.00
57248;BME280;55809;46.618;10.764;2023-02-12T10:43:29;64767.38;;;-145.41;100.00
57248;BME280;55809;46.618;10.764;2023-02-12T10:45:57;64767.38;;;-145.41;100.00
57248;BME280;55809;46.618;10.764;2023-02-12T10:48:28;64767.38;;;-145.41;100.00
57248;BME280;55809;46.618;10.764;2023-02-12T10:51:15;64767.38;;;-145.41;100.00
57248;BME280;55809;46.618;10.764;2023-02-12T10:53:47;64767.38;;;-145.41;100.00
57248;BME280;55809;46.618;10.764;2023-02-12T10:56:18;64767.38;;;-145.41;100.00
57248;BME280;55809;46.618;10.764;2023-02-12T10:58:53;64767.38;;;-145.41;100.00
57248;BME280;55809;46.618;10.764;2023-02-12T11:01:30;64767.38;;;-145.41;100.00
57248;BME280;55809;46.618;10.764;2023-02-12T11:04:31;64767.38;;;-145.41;100.00
57248;BME280;55809;46.618;10.764;2023-02-12T11:07:03;64767.38;;;-145.41;100.00
57248;BME280;55809;46.618;10.764;2023-02-12T11:09:39;64767.38;;;-145.41;100.00
57248;BME280;55809;46.618;10.764;2023-02-12T11:12:24;64767.38;;;-145.41;100.00
57248;BME280;55809;46.618;10.764;2023-02-12T11:15:05;64767.38;;;-145.41;100.00
57248;BME280;55809;46.618;10.764;2023-02-12T11:17:58;64767.38;;;-145.41;100.00
57248;BME280;55809;46.618;10.764;2023-02-12T11:20:31;64767.38;;;-145.41;100.00
57248;BME280;55809;46.618;10.764;2023-02-12T11:27:02;64767.38;;;-145.41;100.00
57248;BME280;55809;46.618;10.764;2023-02-12T11:30:38;64767.38;;;-145.41;100.00
57248;BME280;55809;46.618;10.764;2023-02-12T11:33:47;64767.38;;;-145.41;100.00
57248;BME280;55809;46.618;10.764;2023-02-12T11:40:22;64767.38;;;-145.41;100.00
57248;BME280;55809;46.618;10.764;2023-02-12T11:49:41;64767.38;;;-145.41;100.00
57248;BME280;55809;46.618;10.764;2023-02-12T11:52:37;64767.38;;;-145.41;100.00
57248;BME280;55809;46.618;10.764;2023-02-12T11:55:19;64767.38;;;-145.41;100.00
57248;BME280;55809;46.618;10.764;2023-02-12T11:58:25;64767.38;;;-145.41;100.00
57248;BME280;55809;46.618;10.764;2023-02-12T12:01:19;64767.38;;;-145.41;100.00
57248;BME280;55809;46.618;10.764;2023-02-12T12:04:07;64767.38;;;-145.41;100.00
57248;BME280;55809;46.618;10.764;2023-02-12T12:06:47;64767.38;;;-145.41;100.00
57248;BME280;55809;46.618;10.764;2023-02-12T12:09:28;64767.38;;;-145.41;100.00
57248;BME280;55809;46.618;10.764;2023-02-12T12:12:17;64767.38;;;-145.41;100.00
57248;BME280;55809;46.618;10.764;2023-02-12T12:15:18;64767.38;;;-145.41;100.00
57248;BME280;55809;46.618;10.764;2023-02-12T12:18:33;64767.38;;;-145.41;100.00
57248;BME280;55809;46.618;10.764;2023-02-12T12:21:33;64767.38;;;-145.41;100.00
57248;BME280;55809;46.618;10.764;2023-02-12T12:31:32;64767.38;;;-145.41;100.00
57248;BME280;55809;46.618;10.764;2023-02-12T12:34:24;64767.38;;;-145.41;100.00
57248;BME280;55809;46.618;10.764;2023-02-12T12:37:14;64767.38;;;-145.41;100.00
57248;BME280;55809;46.618;10.764;2023-02-12T12:45:48;64767.38;;;-145.41;100.00
57248;BME280;55809;46.618;10.764;2023-02-12T12:48:44;64767.38;;;-145.41;100.00
57248;BME280;55809;46.618;10.764;2023-02-12T12:51:23;64767.38;;;-145.41;100.00
57248;BME280;55809;46.618;10.764;2023-02-12T12:54:09;64767.38;;;-145.41;100.00
57248;BME280;55809;46.618;10.764;2023-02-12T12:56:46;64767.38;;;-145.41;100.00
57248;BME280;55809;46.618;10.764;2023-02-12T13:03:04;64767.38;;;-145.41;100.00
57248;BME280;55809;46.618;10.764;2023-02-12T13:06:16;64767.38;;;-145.41;100.00
57248;BME280;55809;46.618;10.764;2023-02-12T13:09:01;64767.38;;;-145.41;100.00
57248;BME280;55809;46.618;10.764;2023-02-12T13:11:49;64767.38;;;-145.41;100.00
57248;BME280;55809;46.618;10.764;2023-02-12T13:14:48;64767.38;;;-145.41;100.00
57248;BME280;55809;46.618;10.764;2023-02-12T13:17:27;64767.38;;;-145.41;100.00
57248;BME280;55809;46.618;10.764;2023-02-12T13:20:32;64767.38;;;-145.41;100.00
57248;BME280;55809;46.618;10.764;2023-02-12T13:23:35;64767.38;;;-145.41;100.00
57248;BME280;55809;46.618;10.764;2023-02-12T13:26:26;64767.38;;;-145.41;100.00
57248;BME280;55809;46.618;10.764;2023-02-12T13:29:27;64767.38;;;-145.41;100.00
57248;BME280;55809;46.618;10.764;2023-02-12T13:32:25;64767.38;;;-145.41;100.00
57248;BME280;55809;46.618;10.764;2023-02-12T13:35:07;64767.38;;;-145.41;100.00
57248;BME280;55809;46.618;10.764;2023-02-12T13:38:01;64767.38;;;-145.41;100.00
57248;BME280;55809;46.618;10.764;2023-02-12T13:44:49;64767.38;;;-145.41;100.00
57248;BME280;55809;46.618;10.764;2023-02-12T13:51:14;64767.38;;;-145.41;100.00
57248;BME280;55809;46.618;10.764;2023-02-12T13:54:12;64767.38;;;-145.41;100.00
57248;BME280;55809;46.618;10.764;2023-02-12T13:57:24;64767.38;;;-145.41;100.00
57248;BME280;55809;46.618;10.764;2023-02-12T14:03:47;94161.84;;;11.63;36.43
57248;BME280;55809;46.618;10.764;2023-02-12T14:07:17;94050.59;;;10.69;36.21
57248;BME280;55809;46.618;10.764;2023-02-12T14:10:00;94135.19;;;11.17;36.51
57248;BME280;55809;46.618;10.764;2023-02-12T14:12:41;94111.47;;;10.96;37.11
57248;BME280;55809;46.618;10.764;2023-02-12T14:15:40;94047.31;;;10.49;37.36
57248;BME280;55809;46.618;10.764;2023-02-12T14:18:35;94113.72;;;10.91;37.78
57248;BME280;55809;46.618;10.764;2023-02-12T14:21:57;94124.53;;;10.94;37.56
57248;BME280;55809;46.618;10.764;2023-02-12T14:24:51;94073.63;;;10.59;37.05
57248;BME280;55809;46.618;10.764;2023-02-12T14:27:22;94058.50;;;10.47;37.69
57248;BME280;55809;46.618;10.764;2023-02-12T14:30:22;94058.78;;;10.39;38.02
57248;BME280;55809;46.618;10.764;2023-02-12T14:32:58;94045.41;;;10.19;38.17
57248;BME280;55809;46.618;10.764;2023-02-12T14:36:16;94047.31;;;10.15;38.33
57248;BME280;55809;46.618;10.764;2023-02-12T14:38:59;94114.41;;;10.47;38.53
57248;BME280;55809;46.618;10.764;2023-02-12T14:45:26;94049.97;;;9.81;38.86
57248;BME280;55809;46.618;10.764;2023-02-12T14:48:46;94050.25;;;9.73;38.76
57248;BME280;55809;46.618;10.764;2023-02-12T14:51:43;94088.16;;;9.87;38.43
57248;BME280;55809;46.618;10.764;2023-02-12T14:54:34;94056.47;;;9.50;38.89